createdAt,value
2023-04-11T00:00:01.202Z,100847.16
2023-04-11T00:02:28.413Z,100845.19
2023-04-11T00:04:55.523Z,100847.69
2023-04-11T00:07:22.477Z,100847.16
2023-04-11T00:09:49.396Z,100849.38
2023-04-11T00:12:16.377Z,100847.97
2023-04-11T00:14:45.710Z,100849.09
2023-04-11T00:17:12.926Z,100859.13
2023-04-11T00:19:39.814Z,100860.28
2023-04-11T00:22:06.787Z,100872.25
2023-04-11T00:24:33.686Z,100870.59
2023-04-11T00:27:01.784Z,100875.91
2023-04-11T00:29:28.796Z,100869.19
2023-04-11T00:31:57.065Z,100868.91
2023-04-11T00:34:23.974Z,100871.69
2023-04-11T00:36:51.417Z,100869.75
2023-04-11T00:39:18.916Z,100872.28
2023-04-11T00:41:45.810Z,100877.56
2023-04-11T00:44:14.240Z,100892.06
2023-04-11T00:46:45.513Z,100882.59
2023-04-11T00:49:13.417Z,100894.59
2023-04-11T00:51:40.338Z,100901.81
2023-04-11T00:54:10.597Z,100903.78
2023-04-11T00:56:37.696Z,100906.84
2023-04-11T00:59:04.817Z,100907.13
2023-04-11T01:01:36.620Z,100914.38
2023-04-11T01:04:03.892Z,100911.03
2023-04-11T01:06:31.862Z,100914.38
2023-04-11T01:08:58.849Z,100912.44
2023-04-11T01:11:26.117Z,100908.81
2023-04-11T01:13:53.450Z,100908.25
2023-04-11T01:16:21.919Z,100908.25
2023-04-11T01:18:49.334Z,100899.59
2023-04-11T01:21:17.683Z,100899.88
2023-04-11T01:23:45.083Z,100906.00
2023-04-11T01:26:12.923Z,100903.22
2023-04-11T01:28:39.894Z,100897.34
2023-04-11T01:31:07.101Z,100902.09
2023-04-11T01:33:34.335Z,100900.69
2023-04-11T01:36:01.467Z,100920.22
2023-04-11T01:38:28.437Z,100919.69
2023-04-11T01:40:56.564Z,100919.69
2023-04-11T01:43:23.572Z,100920.50
2023-04-11T01:45:50.567Z,100927.47
2023-04-11T01:48:17.627Z,100925.25
2023-04-11T01:50:44.542Z,100930.00
2023-04-11T01:53:11.509Z,100933.63
2023-04-11T01:55:38.447Z,100938.94
2023-04-11T01:58:05.575Z,100945.63
2023-04-11T02:00:32.877Z,100940.03
2023-04-11T02:02:59.925Z,100943.94
2023-04-11T02:05:26.996Z,100946.16
2023-04-11T02:07:53.919Z,100944.50
2023-04-11T02:10:20.945Z,100940.88
2023-04-11T02:12:47.842Z,100939.22
2023-04-11T02:15:14.721Z,100943.09
2023-04-11T02:17:45.681Z,100947.31
2023-04-11T02:20:13.808Z,100944.50
2023-04-11T02:22:40.979Z,100947.56
2023-04-11T02:25:08.181Z,100948.97
2023-04-11T02:27:35.140Z,100960.94
2023-04-11T02:30:06.142Z,100954.25
2023-04-11T02:32:34.926Z,100953.41
2023-04-11T02:35:02.441Z,100960.41
2023-04-11T02:37:29.421Z,100954.81
2023-04-11T02:39:56.467Z,100959.00
2023-04-11T02:42:23.492Z,100962.09
2023-04-11T02:44:50.400Z,100968.78
2023-04-11T02:47:17.309Z,100976.03
2023-04-11T02:49:44.347Z,100977.97
2023-04-11T02:52:11.269Z,100973.50
2023-04-11T02:54:38.245Z,100982.13
2023-04-11T02:57:05.201Z,100977.72
2023-04-11T02:59:32.236Z,100972.94
2023-04-11T03:01:59.869Z,100976.03
2023-04-11T03:04:27.065Z,100973.25
2023-04-11T03:06:54.250Z,100970.72
2023-04-11T03:09:21.531Z,100971.00
2023-04-11T03:11:48.478Z,100964.56
2023-04-11T03:14:15.719Z,100970.44
2023-04-11T03:16:42.602Z,100968.19
2023-04-11T03:19:09.532Z,100974.63
2023-04-11T03:21:36.551Z,100977.97
2023-04-11T03:24:03.444Z,100977.72
2023-04-11T03:26:30.455Z,100980.19
2023-04-11T03:28:57.659Z,100982.13
2023-04-11T03:31:24.970Z,100988.28
2023-04-11T03:33:51.898Z,100986.06
2023-04-11T03:36:18.868Z,100986.91
2023-04-11T03:38:45.886Z,100980.50
2023-04-11T03:41:13.073Z,100980.19
2023-04-11T03:43:40.164Z,100985.50
2023-04-11T03:46:07.191Z,100981.59
2023-04-11T03:48:34.181Z,100979.34
2023-04-11T03:51:01.080Z,100979.94
2023-04-11T03:53:28.034Z,100977.97
2023-04-11T03:55:55.255Z,100974.34
2023-04-11T03:58:22.220Z,100970.44
2023-04-11T04:00:49.133Z,100972.41
2023-04-11T04:03:16.191Z,100967.94
2023-04-11T04:05:43.357Z,100964.59
2023-04-11T04:08:10.519Z,100970.72
2023-04-11T04:10:37.439Z,100974.91
2023-04-11T04:13:04.369Z,100982.44
2023-04-11T04:15:31.296Z,100972.97
2023-04-11T04:17:58.267Z,100979.94
2023-04-11T04:20:25.223Z,100984.38
2023-04-11T04:22:54.195Z,100997.22
2023-04-11T04:25:22.139Z,100985.22
2023-04-11T04:27:54.329Z,100998.06
2023-04-11T04:30:22.353Z,101000.28
2023-04-11T04:32:54.995Z,100999.16
2023-04-11T04:35:22.075Z,100996.38
2023-04-11T04:37:50.332Z,100998.59
2023-04-11T04:40:20.885Z,100995.81
2023-04-11T04:42:58.717Z,101000.84
2023-04-11T04:45:26.652Z,101009.47
2023-04-11T04:47:53.692Z,101009.75
2023-04-11T04:50:20.905Z,101005.84
2023-04-11T04:52:47.834Z,101006.97
2023-04-11T04:55:14.956Z,101008.09
2023-04-11T04:57:43.117Z,101003.91
2023-04-11T05:00:12.064Z,101012.25
2023-04-11T05:02:40.991Z,101011.72
2023-04-11T05:05:08.429Z,101009.75
2023-04-11T05:07:35.614Z,101017.28
2023-04-11T05:10:02.687Z,101011.72
2023-04-11T05:12:29.699Z,101023.97
2023-04-11T05:14:57.082Z,101017.28
2023-04-11T05:17:25.509Z,101032.03
2023-04-11T05:19:52.913Z,101027.03
2023-04-11T05:22:19.893Z,101034.28
2023-04-11T05:24:46.780Z,101040.97
2023-04-11T05:27:13.931Z,101039.59
2023-04-11T05:29:40.896Z,101037.91
2023-04-11T05:32:07.863Z,101051.28
2023-04-11T05:34:34.838Z,101049.59
2023-04-11T05:37:02.111Z,101057.69
2023-04-11T05:39:29.029Z,101063.25
2023-04-11T05:41:57.195Z,101064.09
2023-04-11T05:44:24.322Z,101067.47
2023-04-11T05:46:51.302Z,101063.00
2023-04-11T05:49:18.192Z,101068.00
2023-04-11T05:51:45.079Z,101068.84
2023-04-11T05:54:12.163Z,101073.03
2023-04-11T05:56:42.684Z,101069.41
2023-04-11T05:59:09.655Z,101071.34
2023-04-11T06:01:40.121Z,101073.03
2023-04-11T06:04:07.483Z,101082.22
2023-04-11T06:06:36.550Z,101072.47
2023-04-11T06:09:03.530Z,101074.13
2023-04-11T06:11:31.285Z,101079.72
2023-04-11T06:13:58.444Z,101075.81
2023-04-11T06:16:25.580Z,101083.59
2023-04-11T06:18:52.634Z,101088.63
2023-04-11T06:21:19.636Z,101085.84
2023-04-11T06:23:46.600Z,101095.59
2023-04-11T06:26:13.591Z,101088.34
2023-04-11T06:28:40.534Z,101091.41
2023-04-11T06:31:09.453Z,101101.72
2023-04-11T06:33:36.442Z,101097.00
2023-04-11T06:36:05.984Z,101103.69
2023-04-11T06:38:35.270Z,101100.31
2023-04-11T06:41:02.262Z,101105.88
2023-04-11T06:43:29.332Z,101093.06
2023-04-11T06:45:56.360Z,101089.75
2023-04-11T06:48:23.641Z,101100.03
2023-04-11T06:50:50.600Z,101089.72
2023-04-11T06:53:17.684Z,101095.31
2023-04-11T06:55:48.391Z,101099.22
2023-04-11T06:58:15.474Z,101095.31
2023-04-11T07:00:42.640Z,101100.31
2023-04-11T07:03:09.962Z,101103.09
2023-04-11T07:05:39.423Z,101103.66
2023-04-11T07:08:06.743Z,101107.28
2023-04-11T07:10:33.864Z,101111.19
2023-04-11T07:13:00.981Z,101106.72
2023-04-11T07:15:28.157Z,101116.75
2023-04-11T07:17:55.238Z,101125.94
2023-04-11T07:20:22.404Z,101118.97
2023-04-11T07:22:49.637Z,101114.53
2023-04-11T07:25:16.641Z,101102.53
2023-04-11T07:27:44.099Z,101110.06
2023-04-11T07:30:11.743Z,101113.69
2023-04-11T07:32:38.876Z,101114.53
2023-04-11T07:35:06.262Z,101112.00
2023-04-11T07:37:33.289Z,101108.38
2023-04-11T07:40:00.330Z,101108.38
2023-04-11T07:42:27.310Z,101114.78
2023-04-11T07:44:54.531Z,101111.72
2023-04-11T07:47:21.993Z,101123.41
2023-04-11T07:49:49.435Z,101113.09
2023-04-11T07:52:16.418Z,101096.69
2023-04-11T07:54:43.404Z,101101.69
2023-04-11T07:57:10.643Z,101097.50
2023-04-11T07:59:38.024Z,101094.69
2023-04-11T08:02:07.529Z,101093.06
2023-04-11T08:04:34.950Z,101104.19
2023-04-11T08:07:02.690Z,101092.47
2023-04-11T08:09:30.321Z,101087.75
2023-04-11T08:11:57.552Z,101076.59
2023-04-11T08:14:24.971Z,101082.44
2023-04-11T08:16:53.335Z,101071.03
2023-04-11T08:19:21.569Z,101074.66
2023-04-11T08:21:49.164Z,101080.50
2023-04-11T08:24:16.217Z,101082.16
2023-04-11T08:26:43.495Z,101084.69
2023-04-11T08:29:11.617Z,101084.38
2023-04-11T08:31:43.899Z,101076.31
2023-04-11T08:34:15.755Z,101075.75
2023-04-11T08:36:43.180Z,101091.91
2023-04-11T08:39:26.999Z,101088.31
2023-04-11T08:41:54.432Z,101071.59
2023-04-11T08:44:22.433Z,101081.34
2023-04-11T08:46:49.428Z,101069.63
2023-04-11T08:49:16.378Z,101069.63
2023-04-11T08:51:45.064Z,101070.19
2023-04-11T08:54:12.662Z,101075.50
2023-04-11T08:56:42.156Z,101073.84
2023-04-11T08:59:09.536Z,101071.31
2023-04-11T09:01:37.838Z,101071.88
2023-04-11T09:04:05.860Z,101075.22
2023-04-11T09:06:34.129Z,101075.50
2023-04-11T09:09:02.378Z,101083.56
2023-04-11T09:11:29.651Z,101080.25
2023-04-11T09:14:00.001Z,101079.69
2023-04-11T09:16:27.463Z,101071.88
2023-04-11T09:18:54.782Z,101083.31
2023-04-11T09:21:22.131Z,101082.47
2023-04-11T09:23:49.213Z,101076.91
2023-04-11T09:26:26.681Z,101092.50
2023-04-11T09:28:54.627Z,101082.47
2023-04-11T09:31:22.480Z,101074.69
2023-04-11T09:33:55.437Z,101076.06
2023-04-11T09:36:23.690Z,101076.91
2023-04-11T09:38:52.306Z,101072.19
2023-04-11T09:41:22.363Z,101086.13
2023-04-11T09:43:51.251Z,101068.56
2023-04-11T09:46:21.522Z,101069.66
2023-04-11T09:48:49.407Z,101069.69
2023-04-11T09:51:31.805Z,101071.88
2023-04-11T09:54:02.263Z,101072.19
2023-04-11T09:56:29.650Z,101059.91
2023-04-11T09:58:57.857Z,101046.81
2023-04-11T10:01:26.012Z,101042.09
2023-04-11T10:03:54.450Z,101033.47
2023-04-11T10:06:32.128Z,101035.97
2023-04-11T10:09:02.346Z,101026.47
2023-04-11T10:11:29.519Z,101023.69
2023-04-11T10:13:58.237Z,101017.56
2023-04-11T10:16:27.122Z,101025.94
2023-04-11T10:18:54.424Z,101017.28
2023-04-11T10:21:24.786Z,101013.97
2023-04-11T10:23:55.147Z,101008.06
2023-04-11T10:26:42.258Z,101009.75
2023-04-11T10:29:32.506Z,101012.81
2023-04-11T10:32:02.604Z,101018.38
2023-04-11T10:34:29.778Z,101008.91
2023-04-11T10:37:00.519Z,100993.03
2023-04-11T10:39:30.987Z,100985.22
2023-04-11T10:42:18.063Z,100983.56
2023-04-11T10:44:45.147Z,100976.56
2023-04-11T10:47:17.944Z,100977.69
2023-04-11T10:49:47.328Z,100972.09
2023-04-11T10:52:17.904Z,100967.63
2023-04-11T10:54:47.046Z,100967.63
2023-04-11T10:57:14.633Z,100954.53
2023-04-11T10:59:43.079Z,100954.81
2023-04-11T11:02:10.766Z,100962.63
2023-04-11T11:04:39.602Z,100956.19
2023-04-11T11:07:07.738Z,100952.31
2023-04-11T11:09:35.751Z,100953.41
2023-04-11T11:12:06.974Z,100943.38
2023-04-11T11:14:34.794Z,100952.06
2023-04-11T11:17:03.520Z,100938.13
2023-04-11T11:19:31.680Z,100947.00
2023-04-11T11:22:02.043Z,100937.81
2023-04-11T11:24:29.459Z,100929.44
2023-04-11T11:26:57.590Z,100935.00
2023-04-11T11:29:28.410Z,100927.75
2023-04-11T11:31:56.220Z,100930.53
2023-04-11T11:34:26.792Z,100925.81
2023-04-11T11:36:54.451Z,100931.94
2023-04-11T11:39:23.338Z,100926.38
2023-04-11T11:41:51.892Z,100928.91
2023-04-11T11:44:22.542Z,100935.84
2023-04-11T11:46:53.052Z,100928.59
2023-04-11T11:49:20.478Z,100913.81
2023-04-11T11:51:48.674Z,100903.78
2023-04-11T11:54:16.258Z,100902.09
2023-04-11T11:56:50.045Z,100901.25
2023-04-11T11:59:26.806Z,100888.44
2023-04-11T12:01:57.943Z,100885.06
2023-04-11T12:04:25.906Z,100881.47
2023-04-11T12:06:54.978Z,100870.03
2023-04-11T12:09:22.960Z,100870.03
2023-04-11T12:11:55.489Z,100863.34
2023-04-11T12:14:23.756Z,100859.13
2023-04-11T12:16:54.640Z,100864.69
2023-04-11T12:19:22.238Z,100851.06
2023-04-11T12:21:49.744Z,100845.75
2023-04-11T12:24:17.137Z,100858.59
2023-04-11T12:27:02.788Z,100851.91
2023-04-11T12:29:33.874Z,100869.47
2023-04-11T12:32:01.506Z,100870.03
2023-04-11T12:34:28.898Z,100872.25
2023-04-11T12:36:58.572Z,100853.84
2023-04-11T12:39:25.894Z,100852.75
2023-04-11T12:41:53.445Z,100834.06
2023-04-11T12:44:21.193Z,100836.84
2023-04-11T12:46:48.555Z,100832.13
2023-04-11T12:49:15.865Z,100825.69
2023-04-11T12:51:43.293Z,100820.13
2023-04-11T12:54:10.984Z,100809.81
2023-04-11T12:56:39.090Z,100807.28
2023-04-11T12:59:07.182Z,100801.44
2023-04-11T13:01:50.326Z,100803.91
2023-04-11T13:04:17.820Z,100796.69
2023-04-11T13:06:45.311Z,100795.88
2023-04-11T13:09:13.056Z,100794.75
2023-04-11T13:11:40.593Z,100783.31
2023-04-11T13:14:07.959Z,100780.25
2023-04-11T13:16:35.319Z,100781.09
2023-04-11T13:19:02.611Z,100779.41
2023-04-11T13:21:29.875Z,100784.16
2023-04-11T13:23:57.084Z,100775.53
2023-04-11T13:26:24.233Z,100770.22
2023-04-11T13:28:51.679Z,100757.38
2023-04-11T13:31:19.830Z,100761.59
2023-04-11T13:33:48.692Z,100758.53
2023-04-11T13:36:16.137Z,100752.13
2023-04-11T13:38:43.600Z,100744.31
2023-04-11T13:41:13.098Z,100744.03
2023-04-11T13:43:41.132Z,100731.75
2023-04-11T13:46:08.768Z,100729.25
2023-04-11T13:48:35.992Z,100716.44
2023-04-11T13:51:04.879Z,100721.75
2023-04-11T13:53:32.301Z,100716.16
2023-04-11T13:55:59.784Z,100720.88
2023-04-11T13:58:27.138Z,100728.41
2023-04-11T14:00:54.727Z,100717.56
2023-04-11T14:03:22.324Z,100703.91
2023-04-11T14:05:49.825Z,100696.09
2023-04-11T14:08:16.921Z,100697.75
2023-04-11T14:10:44.728Z,100702.22
2023-04-11T14:13:11.863Z,100710.31
2023-04-11T14:15:39.177Z,100705.84
2023-04-11T14:18:06.526Z,100689.66
2023-04-11T14:20:34.022Z,100678.22
2023-04-11T14:23:01.751Z,100682.44
2023-04-11T14:25:29.298Z,100681.31
2023-04-11T14:27:56.901Z,100666.81
2023-04-11T14:30:24.362Z,100675.19
2023-04-11T14:32:51.582Z,100679.38
2023-04-11T14:35:19.236Z,100694.69
2023-04-11T14:37:46.997Z,100659.03
2023-04-11T14:40:14.356Z,100657.09
2023-04-11T14:42:41.749Z,100640.06
2023-04-11T14:45:09.355Z,100655.16
2023-04-11T14:47:37.017Z,100659.84
2023-04-11T14:50:04.761Z,100654.31
2023-04-11T14:52:32.334Z,100658.22
2023-04-11T14:54:59.934Z,100661.28
2023-04-11T14:57:42.761Z,100633.97
2023-04-11T15:00:17.400Z,100635.34
2023-04-11T15:02:44.849Z,100620.88
2023-04-11T15:05:14.330Z,100610.00
2023-04-11T15:07:41.860Z,100604.41
2023-04-11T15:10:09.795Z,100593.28
2023-04-11T15:12:38.673Z,100594.69
2023-04-11T15:15:06.576Z,100592.44
2023-04-11T15:17:39.870Z,100594.13
2023-04-11T15:20:09.055Z,100581.28
2023-04-11T15:22:40.091Z,100583.81
2023-04-11T15:25:09.767Z,100583.25
2023-04-11T15:27:37.326Z,100584.69
2023-04-11T15:30:06.573Z,100571.84
2023-04-11T15:32:34.378Z,100563.75
2023-04-11T15:35:02.075Z,100567.38
2023-04-11T15:37:29.727Z,100579.13
2023-04-11T15:39:58.315Z,100556.28
2023-04-11T15:42:26.255Z,100560.72
2023-04-11T15:44:53.709Z,100566.88
2023-04-11T15:47:21.156Z,100554.03
2023-04-11T15:49:48.492Z,100556.28
2023-04-11T15:52:17.254Z,100544.25
2023-04-11T15:54:44.759Z,100550.16
2023-04-11T15:57:12.171Z,100542.06
2023-04-11T15:59:41.876Z,100531.19
2023-04-11T16:02:09.343Z,100533.44
2023-04-11T16:04:39.928Z,100526.47
2023-04-11T16:07:07.506Z,100512.81
2023-04-11T16:09:35.574Z,100509.47
2023-04-11T16:12:03.519Z,100492.47
2023-04-11T16:14:30.886Z,100488.31
2023-04-11T16:16:58.652Z,100493.34
2023-04-11T16:19:26.021Z,100485.53
2023-04-11T16:21:53.342Z,100469.38
2023-04-11T16:24:21.454Z,100473.53
2023-04-11T16:26:48.886Z,100462.69
2023-04-11T16:29:16.582Z,100463.22
2023-04-11T16:31:44.200Z,100454.34
2023-04-11T16:34:11.829Z,100438.47
2023-04-11T16:36:39.386Z,100435.34
2023-04-11T16:39:06.937Z,100432.88
2023-04-11T16:41:36.999Z,100415.00
2023-04-11T16:44:06.460Z,100389.41
2023-04-11T16:46:33.990Z,100405.59
2023-04-11T16:49:01.637Z,100382.16
2023-04-11T16:51:29.252Z,100380.78
2023-04-11T16:53:59.154Z,100373.81
2023-04-11T16:56:29.012Z,100364.84
2023-04-11T16:58:57.164Z,100354.31
2023-04-11T17:01:24.818Z,100340.94
2023-04-11T17:03:54.548Z,100330.91
2023-04-11T17:06:22.356Z,100316.72
2023-04-11T17:08:49.730Z,100314.19
2023-04-11T17:11:16.962Z,100305.88
2023-04-11T17:13:46.298Z,100292.81
2023-04-11T17:16:14.237Z,100285.00
2023-04-11T17:18:42.166Z,100263.53
2023-04-11T17:21:09.648Z,100257.66
2023-04-11T17:23:43.092Z,100263.28
2023-04-11T17:26:11.792Z,100246.00
2023-04-11T17:28:45.234Z,100242.38
2023-04-11T17:31:13.701Z,100219.78
2023-04-11T17:33:43.220Z,100215.34
2023-04-11T17:36:15.919Z,100198.94
2023-04-11T17:38:44.165Z,100195.03
2023-04-11T17:41:14.894Z,100186.66
2023-04-11T17:43:43.605Z,100174.13
2023-04-11T17:46:11.009Z,100183.09
2023-04-11T17:48:38.537Z,100161.66
2023-04-11T17:51:06.101Z,100147.16
2023-04-11T17:53:34.139Z,100139.38
2023-04-11T17:56:06.454Z,100128.78
2023-04-11T17:58:33.946Z,100115.69
2023-04-11T18:01:01.997Z,100113.22
2023-04-11T18:03:35.765Z,100114.56
2023-04-11T18:06:03.222Z,100096.50
2023-04-11T18:08:46.698Z,100093.19
2023-04-11T18:11:14.470Z,100086.22
2023-04-11T18:13:43.510Z,100074.53
2023-04-11T18:16:10.933Z,100057.81
2023-04-11T18:18:38.392Z,100057.53
2023-04-11T18:21:07.741Z,100038.03
2023-04-11T18:23:35.619Z,100034.19
2023-04-11T18:26:02.882Z,100037.75
2023-04-11T18:28:30.239Z,100031.06
2023-04-11T18:30:57.849Z,100012.69
2023-04-11T18:33:25.159Z,100013.53
2023-04-11T18:35:52.393Z,100011.91
2023-04-11T18:38:19.709Z,100009.41
2023-04-11T18:40:47.464Z,100002.16
2023-04-11T18:43:15.712Z,99992.97
2023-04-11T18:45:44.092Z,99983.22
2023-04-11T18:48:12.518Z,99976.81
2023-04-11T18:50:43.176Z,99967.41
2023-04-11T18:53:13.946Z,99951.53
2023-04-11T18:55:41.512Z,99942.84
2023-04-11T18:58:10.394Z,99939.56
2023-04-11T19:00:39.779Z,99949.88
2023-04-11T19:03:15.300Z,99933.22
2023-04-11T19:05:44.009Z,99918.19
2023-04-11T19:08:11.629Z,99902.31
2023-04-11T19:10:40.447Z,99896.72
2023-04-11T19:13:07.660Z,99887.28
2023-04-11T19:15:35.035Z,99883.59
2023-04-11T19:18:02.440Z,99861.13
2023-04-11T19:20:30.179Z,99851.00
2023-04-11T19:22:57.780Z,99848.03
2023-04-11T19:25:25.531Z,99817.94
2023-04-11T19:27:53.034Z,99813.47
2023-04-11T19:30:20.472Z,99802.63
2023-04-11T19:32:49.249Z,99796.25
2023-04-11T19:35:17.798Z,99776.25
2023-04-11T19:37:45.473Z,99777.06
2023-04-11T19:40:14.367Z,99772.31
2023-04-11T19:42:42.305Z,99771.25
2023-04-11T19:45:10.398Z,99755.72
2023-04-11T19:47:39.693Z,99752.00
2023-04-11T19:50:08.446Z,99760.94
2023-04-11T19:52:35.912Z,99752.38
2023-04-11T19:55:03.412Z,99747.56
2023-04-11T19:57:31.484Z,99741.78
2023-04-11T19:59:59.017Z,99750.13
2023-04-11T20:02:27.071Z,99742.38
2023-04-11T20:04:56.695Z,99728.16
2023-04-11T20:07:24.225Z,99730.41
2023-04-11T20:09:52.283Z,99739.59
2023-04-11T20:12:19.850Z,99715.91
2023-04-11T20:14:47.297Z,99717.31
2023-04-11T20:17:14.894Z,99715.06
2023-04-11T20:19:44.194Z,99718.97
2023-04-11T20:22:18.017Z,99699.50
2023-04-11T20:24:47.189Z,99690.00
2023-04-11T20:27:15.111Z,99683.06
2023-04-11T20:29:42.976Z,99688.66
2023-04-11T20:32:10.679Z,99687.03
2023-04-11T20:34:38.192Z,99684.75
2023-04-11T20:37:08.324Z,99671.16
2023-04-11T20:39:35.795Z,99661.44
2023-04-11T20:42:03.291Z,99665.25
2023-04-11T20:44:30.876Z,99658.34
2023-04-11T20:46:58.231Z,99651.13
2023-04-11T20:49:28.631Z,99640.63
2023-04-11T20:51:55.892Z,99635.53
2023-04-11T20:54:23.158Z,99636.69
2023-04-11T20:56:50.378Z,99643.41
2023-04-11T20:59:17.609Z,99640.28
2023-04-11T21:01:44.777Z,99637.00
2023-04-11T21:04:12.114Z,99640.63
2023-04-11T21:06:39.463Z,99653.38
2023-04-11T21:09:06.567Z,99648.97
2023-04-11T21:11:33.604Z,99647.31
2023-04-11T21:14:01.078Z,99652.88
2023-04-11T21:16:28.300Z,99640.09
2023-04-11T21:18:55.603Z,99638.13
2023-04-11T21:21:22.842Z,99631.44
2023-04-11T21:23:50.088Z,99632.84
2023-04-11T21:26:17.519Z,99645.94
2023-04-11T21:28:44.726Z,99640.38
2023-04-11T21:31:12.061Z,99639.47
2023-04-11T21:33:39.471Z,99633.38
2023-04-11T21:36:07.134Z,99619.75
2023-04-11T21:38:34.168Z,99609.75
2023-04-11T21:41:01.161Z,99585.53
2023-04-11T21:43:29.026Z,99571.41
2023-04-11T21:45:56.211Z,99564.72
2023-04-11T21:48:23.333Z,99581.13
2023-04-11T21:50:50.472Z,99585.03
2023-04-11T21:53:17.636Z,99582.25
2023-04-11T21:55:46.356Z,99578.00
2023-04-11T21:58:26.289Z,99568.00
2023-04-11T22:00:55.970Z,99570.78
2023-04-11T22:03:23.692Z,99566.88
2023-04-11T22:05:52.688Z,99570.28
2023-04-11T22:08:20.500Z,99564.44
2023-04-11T22:10:48.517Z,99555.75
2023-04-11T22:13:17.032Z,99551.00
2023-04-11T22:15:44.379Z,99552.13
2023-04-11T22:18:11.896Z,99545.44
2023-04-11T22:20:41.132Z,99554.63
2023-04-11T22:23:09.633Z,99551.00
2023-04-11T22:25:37.472Z,99543.78
2023-04-11T22:28:04.540Z,99551.63
2023-04-11T22:30:31.816Z,99541.31
2023-04-11T22:32:59.090Z,99535.22
2023-04-11T22:35:26.459Z,99537.72
2023-04-11T22:37:55.775Z,99535.44
2023-04-11T22:40:22.998Z,99519.56
2023-04-11T22:42:52.283Z,99508.41
2023-04-11T22:45:20.365Z,99522.16
2023-04-11T22:47:47.512Z,99525.44
2023-04-11T22:50:16.155Z,99535.75
2023-04-11T22:52:43.357Z,99529.38
2023-04-11T22:55:11.306Z,99526.59
2023-04-11T22:57:38.805Z,99538.34
2023-04-11T23:00:07.835Z,99544.41
2023-04-11T23:02:36.554Z,99550.81
2023-04-11T23:05:04.292Z,99549.16
2023-04-11T23:07:31.937Z,99553.59
2023-04-11T23:10:01.682Z,99533.28
2023-04-11T23:12:29.083Z,99537.19
2023-04-11T23:14:56.301Z,99547.28
2023-04-11T23:17:24.239Z,99542.81
2023-04-11T23:19:51.330Z,99539.53
2023-04-11T23:22:18.795Z,99545.09
2023-04-11T23:24:46.028Z,99543.38
2023-04-11T23:27:13.346Z,99532.50
2023-04-11T23:29:40.442Z,99532.84
2023-04-11T23:32:08.018Z,99525.31
2023-04-11T23:34:36.225Z,99528.91
2023-04-11T23:37:03.254Z,99537.25
2023-04-11T23:39:30.679Z,99537.59
2023-04-11T23:41:57.679Z,99523.66
2023-04-11T23:44:24.978Z,99537.38
2023-04-11T23:46:52.011Z,99530.38
2023-04-11T23:49:19.034Z,99535.09
2023-04-11T23:51:46.203Z,99528.41
2023-04-11T23:54:13.355Z,99537.38
2023-04-11T23:56:40.393Z,99545.41
2023-04-11T23:59:07.368Z,99536.56
